RUK27GK EGSS-EGSS
Flight info
| Callsign | RUK27GK |
|---|---|
| Flight time | 0h 26m |
| Altitude | 32000 |
| Route | NUGBO M183 SILVA Q41 SAM N63 LELNA/N0461F330 DCT ERCOZ DCT NOVAN DCT DELOG N864 SNR M190 OBETO |
| Aircraft | B738/M-SDE2E3FGHIRWXY/LB1 |
Departure
| Time | 2026-05-04 09:38 |
|---|---|
| Airport | London Stansted Airport (EGSS) |
Arrival
| Time | 2026-05-04 10:05 |
|---|---|
| Airport | London Stansted Airport (EGSS) |
| Time | Latitude | Longitude | Altitude | Speed | Heading |
|---|---|---|---|---|---|
| 2026-05-04 09:37 | 51.57723 | -0.28777 | 13827 ft | 361 kts | 33° |
| 2026-05-04 09:37 | 51.59811 | -0.26595 | 13549 ft | 354 kts | 33° |
| 2026-05-04 09:38 | 51.61850 | -0.24462 | 13324 ft | 347 kts | 33° |
| 2026-05-04 09:38 | 51.63855 | -0.22362 | 13051 ft | 341 kts | 33° |
| 2026-05-04 09:38 | 51.65826 | -0.20295 | 12802 ft | 335 kts | 33° |
| 2026-05-04 09:38 | 51.67761 | -0.18264 | 12528 ft | 330 kts | 33° |
| 2026-05-04 09:39 | 51.69642 | -0.16288 | 12268 ft | 325 kts | 33° |
| 2026-05-04 09:39 | 51.71376 | -0.14466 | 12033 ft | 320 kts | 33° |
| 2026-05-04 09:39 | 51.73227 | -0.12518 | 11771 ft | 316 kts | 33° |
| 2026-05-04 09:39 | 51.75061 | -0.10602 | 11513 ft | 312 kts | 31° |
| 2026-05-04 09:40 | 51.76982 | -0.09022 | 11256 ft | 308 kts | 24° |
| 2026-05-04 09:40 | 51.78810 | -0.07773 | 11020 ft | 305 kts | 22° |
| 2026-05-04 09:40 | 51.80760 | -0.06481 | 10768 ft | 302 kts | 22° |
| 2026-05-04 09:40 | 51.82691 | -0.05190 | 10517 ft | 299 kts | 22° |
| 2026-05-04 09:41 | 51.84604 | -0.03889 | 10273 ft | 297 kts | 22° |
| 2026-05-04 09:42 | 51.97631 | 0.05237 | 8457 ft | 287 kts | 23° |
| 2026-05-04 09:43 | 51.99479 | 0.06293 | 8176 ft | 285 kts | 7° |
| 2026-05-04 09:43 | 52.01452 | 0.06424 | 8111 ft | 285 kts | 360° |
| 2026-05-04 09:43 | 52.03453 | 0.06474 | 8053 ft | 288 kts | 0° |
| 2026-05-04 09:43 | 52.05450 | 0.06565 | 8019 ft | 285 kts | 1° |
| 2026-05-04 09:44 | 52.07431 | 0.06672 | 8009 ft | 285 kts | 1° |
| 2026-05-04 09:44 | 52.09410 | 0.06779 | 8020 ft | 285 kts | 360° |
| 2026-05-04 09:44 | 52.11280 | 0.06154 | 8002 ft | 268 kts | 328° |
| 2026-05-04 09:46 | 52.06051 | -0.04147 | 8027 ft | 227 kts | 189° |
| 2026-05-04 09:46 | 52.04489 | -0.04517 | 8021 ft | 226 kts | 189° |
| 2026-05-04 09:46 | 52.02933 | -0.04895 | 8011 ft | 226 kts | 189° |
| 2026-05-04 09:47 | 52.01370 | -0.05271 | 8024 ft | 229 kts | 186° |
| 2026-05-04 09:47 | 51.99800 | -0.04935 | 8016 ft | 232 kts | 154° |
| 2026-05-04 09:49 | 52.04812 | 0.04896 | 8028 ft | 245 kts | 6° |
| 2026-05-04 09:49 | 52.06496 | 0.05267 | 8007 ft | 243 kts | 7° |
| 2026-05-04 09:49 | 52.08160 | 0.05443 | 7994 ft | 237 kts | 347° |
| 2026-05-04 09:51 | 52.06366 | -0.04203 | 8029 ft | 234 kts | 188° |
| 2026-05-04 09:51 | 52.04763 | -0.04544 | 8013 ft | 231 kts | 188° |
| 2026-05-04 09:51 | 52.03172 | -0.04887 | 8018 ft | 231 kts | 188° |
| 2026-05-04 09:51 | 52.01578 | -0.05238 | 8029 ft | 231 kts | 188° |
| 2026-05-04 09:52 | 51.99985 | -0.05081 | 8010 ft | 232 kts | 159° |
| 2026-05-04 09:52 | 51.98686 | -0.03567 | 8024 ft | 234 kts | 128° |
| 2026-05-04 09:52 | 51.98045 | -0.01196 | 7962 ft | 239 kts | 98° |
| 2026-05-04 09:52 | 51.98108 | 0.01604 | 7591 ft | 251 kts | 83° |
| 2026-05-04 09:53 | 51.98369 | 0.04401 | 7236 ft | 256 kts | 81° |
| 2026-05-04 09:53 | 51.98655 | 0.07271 | 6875 ft | 260 kts | 81° |
| 2026-05-04 09:53 | 51.98945 | 0.10186 | 6522 ft | 263 kts | 81° |
| 2026-05-04 09:53 | 51.99233 | 0.13139 | 6143 ft | 267 kts | 81° |
| 2026-05-04 09:54 | 51.99524 | 0.16120 | 5761 ft | 266 kts | 81° |
| 2026-05-04 09:54 | 51.99809 | 0.19040 | 5494 ft | 258 kts | 81° |
| 2026-05-04 09:54 | 52.00068 | 0.21875 | 5220 ft | 250 kts | 86° |
| 2026-05-04 09:54 | 51.99783 | 0.24585 | 4934 ft | 243 kts | 117° |
| 2026-05-04 09:55 | 51.98708 | 0.26594 | 4661 ft | 235 kts | 148° |
| 2026-05-04 09:55 | 51.97184 | 0.27346 | 4401 ft | 231 kts | 181° |
| 2026-05-04 09:55 | 51.95656 | 0.26644 | 4147 ft | 232 kts | 214° |
| 2026-05-04 09:55 | 51.94505 | 0.24866 | 3939 ft | 234 kts | 229° |
| 2026-05-04 09:56 | 51.93448 | 0.22823 | 3685 ft | 240 kts | 231° |
| 2026-05-04 09:56 | 51.92385 | 0.20728 | 3457 ft | 241 kts | 231° |
| 2026-05-04 09:56 | 51.91320 | 0.18621 | 3194 ft | 242 kts | 231° |
| 2026-05-04 09:56 | 51.90264 | 0.16526 | 3037 ft | 239 kts | 231° |
| 2026-05-04 09:57 | 51.89220 | 0.14451 | 3028 ft | 237 kts | 231° |
| 2026-05-04 09:57 | 51.88180 | 0.12387 | 3015 ft | 236 kts | 231° |
| 2026-05-04 09:57 | 51.87144 | 0.10335 | 3020 ft | 235 kts | 231° |
| 2026-05-04 09:57 | 51.86114 | 0.08295 | 3011 ft | 233 kts | 231° |
| 2026-05-04 09:58 | 51.85092 | 0.06268 | 3013 ft | 232 kts | 231° |
| 2026-05-04 09:58 | 51.84077 | 0.04255 | 3012 ft | 230 kts | 231° |
| 2026-05-04 09:58 | 51.83082 | 0.02279 | 3004 ft | 229 kts | 231° |
| 2026-05-04 10:00 | 51.76322 | 0.00338 | 2095 ft | 183 kts | 91° |
| 2026-05-04 10:00 | 51.76273 | 0.02385 | 2036 ft | 185 kts | 91° |
| 2026-05-04 10:02 | 51.81253 | 0.12569 | 2011 ft | 164 kts | 43° |
| 2026-05-04 10:04 | 51.86695 | 0.20777 | 645 ft | 149 kts | 43° |
| 2026-05-04 10:04 | 51.87451 | 0.21907 | 425 ft | 148 kts | 43° |
| 2026-05-04 10:04 | 51.88178 | 0.22996 | 329 ft | 136 kts | 43° |
| 2026-05-04 10:04 | 51.88720 | 0.23808 | 338 ft | 75 kts | 43° |
| 2026-05-04 10:05 | 51.89049 | 0.24303 | 350 ft | 59 kts | 43° |
| 2026-05-04 10:05 | 51.89329 | 0.24723 | 352 ft | 49 kts | 43° |
| 2026-05-04 10:05 | 51.89476 | 0.24945 | 355 ft | 13 kts | 48° |
| 2026-05-04 10:05 | 51.89493 | 0.25086 | 356 ft | 13 kts | 90° |
| 2026-05-04 10:06 | 51.89482 | 0.25224 | 360 ft | 12 kts | 118° |
| 2026-05-04 10:06 | 51.89425 | 0.25326 | 351 ft | 8 kts | 124° |
| 2026-05-04 10:06 | 51.89424 | 0.25330 | 356 ft | 0 kts | 124° |
| 2026-05-04 10:08 | 51.89277 | 0.25851 | 359 ft | 5 kts | 44° |
| 2026-05-04 10:08 | 51.89293 | 0.25875 | 355 ft | 1 kts | 42° |
| 2026-05-04 10:08 | 51.89293 | 0.25876 | 355 ft | 0 kts | 42° |